Time;durP1;ratioP1;P1;durP2;ratioP2;P2;SDS_P1;SDS_P2;PMS_P1;PMS_P2;Temp;Humidity;BMP_temperature;BMP_pressure;BME280_temperature;BME280_humidity;BME280_pressure;Samples;Min_cycle;Max_cycle;Signal;HPM_P1;HPM_P2
2021/08/08 00:01:44;;;;;;;2.30;1.10;;;16.30;99.90;;;;;;5133666;27;20218;-60
2021/08/08 00:04:12;;;;;;;1.80;1.13;;;16.30;99.90;;;;;;5133428;27;20202;-56
2021/08/08 00:06:39;;;;;;;1.90;1.10;;;16.40;99.90;;;;;;5133108;27;20686;-57
2021/08/08 00:09:06;;;;;;;2.67;1.00;;;16.40;99.90;;;;;;5133133;27;20500;-56
2021/08/08 00:11:32;;;;;;;5.10;1.67;;;16.30;99.90;;;;;;5134024;27;20252;-58
2021/08/08 00:13:59;;;;;;;2.67;0.90;;;16.40;99.90;;;;;;5133647;27;20207;-57
2021/08/08 00:16:28;;;;;;;3.17;1.20;;;16.50;99.90;;;;;;5133961;27;20250;-60
2021/08/08 00:18:55;;;;;;;5.20;1.30;;;16.50;99.90;;;;;;5133150;27;20225;-58
2021/08/08 00:21:23;;;;;;;2.53;1.20;;;16.50;99.90;;;;;;5133488;27;20547;-57
2021/08/08 00:23:50;;;;;;;2.13;1.10;;;16.50;99.90;;;;;;5133652;27;20207;-56
2021/08/08 00:26:16;;;;;;;1.83;0.97;;;16.60;99.90;;;;;;5133514;27;20199;-63
2021/08/08 00:28:44;;;;;;;1.37;1.00;;;16.70;99.90;;;;;;5133244;27;20239;-57
2021/08/08 00:31:10;;;;;;;2.73;1.00;;;16.70;99.90;;;;;;5133193;27;20290;-59
2021/08/08 00:33:37;;;;;;;1.20;1.00;;;16.70;99.90;;;;;;5132851;27;20202;-58
2021/08/08 00:36:04;;;;;;;2.50;1.10;;;16.70;99.90;;;;;;5132984;27;20763;-57
2021/08/08 00:38:32;;;;;;;3.37;1.00;;;16.70;99.90;;;;;;5133090;27;20222;-58
2021/08/08 00:40:59;;;;;;;1.70;1.30;;;16.80;99.90;;;;;;5132889;27;20210;-59
2021/08/08 00:43:25;;;;;;;2.23;1.07;;;16.90;99.90;;;;;;5132709;27;20199;-58
2021/08/08 00:45:52;;;;;;;1.67;1.17;;;16.90;99.90;;;;;;5132778;27;20663;-56
2021/08/08 00:48:19;;;;;;;3.17;1.10;;;16.90;99.90;;;;;;5132671;27;20233;-58
2021/08/08 00:50:45;;;;;;;3.20;1.10;;;16.80;99.90;;;;;;5132831;27;20252;-57
2021/08/08 00:53:12;;;;;;;1.70;1.30;;;16.70;99.90;;;;;;5132835;27;20203;-58
2021/08/08 00:55:40;;;;;;;3.77;1.20;;;16.60;99.90;;;;;;5132416;27;20689;-58
2021/08/08 00:58:07;;;;;;;3.93;0.97;;;16.50;99.90;;;;;;5132383;27;20223;-58
2021/08/08 01:00:35;;;;;;;3.53;1.20;;;16.40;99.90;;;;;;5132365;27;20203;-60
2021/08/08 01:03:06;;;;;;;1.87;1.10;;;16.40;99.90;;;;;;5132731;27;20199;-60
2021/08/08 01:05:38;;;;;;;2.10;1.27;;;16.40;99.90;;;;;;5132316;27;20207;-57
2021/08/08 01:08:09;;;;;;;1.10;1.00;;;16.40;99.90;;;;;;5132315;27;20223;-58
2021/08/08 01:10:37;;;;;;;3.77;1.10;;;16.30;99.90;;;;;;5132363;27;20206;-57
2021/08/08 01:13:09;;;;;;;3.70;1.00;;;16.20;99.90;;;;;;5132174;27;20589;-58
2021/08/08 01:15:35;;;;;;;3.93;1.33;;;16.30;99.90;;;;;;5132226;27;20227;-59
2021/08/08 01:18:03;;;;;;;4.47;1.33;;;16.30;99.90;;;;;;5131596;27;20631;-58
2021/08/08 01:20:30;;;;;;;3.07;1.40;;;16.20;99.90;;;;;;5132189;27;20215;-58
2021/08/08 01:23:00;;;;;;;2.90;1.90;;;16.30;99.90;;;;;;5132086;27;20633;-57
2021/08/08 01:25:29;;;;;;;4.50;1.10;;;16.30;99.90;;;;;;5132240;27;20533;-57
2021/08/08 01:28:00;;;;;;;5.43;1.03;;;16.30;99.90;;;;;;5131730;27;20213;-59
2021/08/08 01:30:28;;;;;;;3.63;1.10;;;16.20;99.90;;;;;;5131945;27;20207;-59
2021/08/08 01:33:01;;;;;;;2.43;1.00;;;16.30;99.90;;;;;;5131935;27;20207;-57
2021/08/08 01:35:28;;;;;;;2.67;1.17;;;16.30;99.90;;;;;;5131574;27;20818;-58
2021/08/08 01:37:54;;;;;;;2.63;1.23;;;16.30;99.90;;;;;;5131584;27;20217;-57
2021/08/08 01:40:27;;;;;;;7.00;1.07;;;16.30;99.90;;;;;;5132048;27;20211;-56
2021/08/08 01:42:57;;;;;;;2.17;1.00;;;16.30;99.90;;;;;;5132009;27;20618;-57
2021/08/08 01:45:24;;;;;;;5.40;1.13;;;16.30;99.90;;;;;;5131828;27;20244;-56
2021/08/08 01:47:55;;;;;;;3.20;0.93;;;16.30;99.90;;;;;;5132024;27;20198;-56
2021/08/08 01:50:23;;;;;;;1.30;0.93;;;16.30;99.90;;;;;;5131861;27;20202;-59
2021/08/08 01:52:50;;;;;;;2.37;1.10;;;16.30;99.90;;;;;;5131833;27;20199;-56
2021/08/08 01:55:16;;;;;;;2.63;1.07;;;16.30;99.90;;;;;;5131913;27;20218;-58
2021/08/08 01:57:43;;;;;;;2.20;0.80;;;16.40;99.90;;;;;;5131814;28;20202;-56
2021/08/08 02:00:13;;;;;;;3.50;1.20;;;16.40;99.90;;;;;;5131760;28;20207;-58
2021/08/08 02:02:50;;;;;;;2.37;1.20;;;16.40;99.90;;;;;;5131474;28;20258;-56
2021/08/08 02:05:17;;;;;;;3.43;1.20;;;16.40;99.90;;;;;;5131360;28;20233;-58
2021/08/08 02:07:43;;;;;;;1.63;0.90;;;16.50;99.90;;;;;;5131485;28;20214;-57
2021/08/08 02:10:11;;;;;;;5.57;2.00;;;16.50;99.90;;;;;;5131592;28;20206;-58
2021/08/08 02:12:37;;;;;;;5.33;1.47;;;16.60;99.90;;;;;;5131448;28;20255;-57
2021/08/08 02:15:05;;;;;;;3.10;1.17;;;16.70;99.90;;;;;;5131489;28;20283;-56
2021/08/08 02:17:34;;;;;;;3.63;1.10;;;16.80;99.90;;;;;;5131585;28;20207;-56
2021/08/08 02:20:00;;;;;;;1.90;0.90;;;16.80;99.90;;;;;;5131463;28;20234;-56
2021/08/08 02:22:27;;;;;;;2.63;0.90;;;16.80;99.90;;;;;;5131475;28;20207;-56
2021/08/08 02:24:53;;;;;;;3.93;0.83;;;16.80;99.90;;;;;;5131227;28;20313;-57
2021/08/08 02:27:20;;;;;;;2.77;1.00;;;16.70;99.90;;;;;;5131689;28;20199;-58
2021/08/08 02:29:47;;;;;;;2.63;1.07;;;16.60;99.90;;;;;;5131543;27;20238;-57
2021/08/08 02:32:15;;;;;;;1.00;0.80;;;16.50;99.90;;;;;;5135087;27;20214;-56
2021/08/08 02:34:43;;;;;;;4.33;2.20;;;16.40;99.90;;;;;;5135312;27;20198;-57
2021/08/08 02:37:10;;;;;;;4.93;1.10;;;16.30;99.90;;;;;;5135183;27;20222;-59
2021/08/08 02:39:37;;;;;;;1.97;0.87;;;16.30;99.90;;;;;;5135123;27;20223;-59
2021/08/08 02:42:04;;;;;;;4.07;0.97;;;16.20;99.90;;;;;;5135308;27;20207;-58
2021/08/08 02:44:31;;;;;;;1.17;0.73;;;16.20;99.90;;;;;;5134875;27;20256;-59
2021/08/08 02:46:57;;;;;;;1.90;0.90;;;16.20;99.90;;;;;;5135009;27;20203;-57
2021/08/08 02:49:24;;;;;;;2.87;0.90;;;16.10;99.90;;;;;;5135024;27;20223;-57
2021/08/08 02:51:54;;;;;;;0.80;0.60;;;16.10;99.90;;;;;;5135169;27;20207;-58
2021/08/08 02:54:21;;;;;;;2.00;0.90;;;16.10;99.90;;;;;;5135010;27;20298;-60
2021/08/08 02:56:48;;;;;;;1.93;1.10;;;16.10;99.90;;;;;;5135008;27;20219;-57
2021/08/08 02:59:15;;;;;;;1.77;0.90;;;16.00;99.90;;;;;;5134763;27;20317;-57
2021/08/08 03:01:41;;;;;;;1.27;0.70;;;16.00;99.90;;;;;;5135023;27;20271;-60
2021/08/08 03:04:08;;;;;;;3.90;0.83;;;16.00;99.90;;;;;;5135061;27;20338;-57
2021/08/08 03:06:34;;;;;;;2.67;1.20;;;16.00;99.90;;;;;;5134908;27;20203;-57
2021/08/08 03:09:03;;;;;;;1.30;0.90;;;15.90;99.90;;;;;;5134649;27;20272;-59
2021/08/08 03:11:30;;;;;;;22.50;10.07;;;15.90;99.90;;;;;;5134594;27;20226;-59
2021/08/08 03:13:56;;;;;;;7.13;4.00;;;15.90;99.90;;;;;;5134263;27;20619;-57
2021/08/08 03:16:23;;;;;;;3.43;1.70;;;15.80;99.90;;;;;;5134366;27;20222;-57
2021/08/08 03:18:49;;;;;;;3.30;1.47;;;15.80;99.90;;;;;;5134123;27;20737;-59
2021/08/08 03:21:16;;;;;;;3.90;1.50;;;15.70;99.90;;;;;;5134329;27;20666;-57
2021/08/08 03:23:43;;;;;;;4.17;1.27;;;15.70;99.90;;;;;;5134183;27;20722;-57
2021/08/08 03:26:11;;;;;;;1.60;1.17;;;15.60;99.90;;;;;;5134334;27;20226;-58
2021/08/08 03:28:37;;;;;;;0.77;0.77;;;15.60;99.90;;;;;;5140308;22;20227;-63
2021/08/08 03:31:04;;;;;;;5.13;1.30;;;15.60;99.90;;;;;;5093563;28;20204;-63
2021/08/08 03:33:31;;;;;;;2.57;0.90;;;15.60;99.90;;;;;;5093208;28;20212;-63
2021/08/08 03:35:57;;;;;;;2.80;1.20;;;15.60;99.90;;;;;;5093296;28;20231;-63
2021/08/08 03:38:24;;;;;;;3.57;1.03;;;15.60;99.90;;;;;;5093190;28;20224;-63
2021/08/08 03:40:51;;;;;;;3.57;1.10;;;15.60;99.90;;;;;;5093618;28;20211;-63
2021/08/08 03:43:20;;;;;;;2.17;1.17;;;15.60;99.90;;;;;;5093177;28;20208;-63
2021/08/08 03:45:46;;;;;;;5.20;1.10;;;15.60;99.90;;;;;;5093102;28;20196;-63
2021/08/08 03:48:13;;;;;;;2.30;1.40;;;15.60;99.90;;;;;;5093001;28;20220;-63
2021/08/08 03:50:40;;;;;;;2.57;1.13;;;15.60;99.90;;;;;;5093218;28;20208;-63
2021/08/08 03:53:07;;;;;;;3.30;0.90;;;15.70;99.90;;;;;;5092985;28;20227;-63
2021/08/08 03:55:33;;;;;;;4.30;1.10;;;15.60;99.90;;;;;;5092690;28;20240;-63
2021/08/08 03:58:00;;;;;;;3.50;0.87;;;15.60;99.90;;;;;;5093027;28;20261;-63
2021/08/08 04:00:28;;;;;;;5.33;1.57;;;15.60;99.90;;;;;;5093090;28;20620;-63
2021/08/08 04:02:55;;;;;;;1.60;1.00;;;15.60;99.90;;;;;;5093165;28;20213;-63
2021/08/08 04:05:22;;;;;;;6.17;2.10;;;15.50;99.90;;;;;;5092634;28;20269;-63
2021/08/08 04:07:48;;;;;;;2.10;1.60;;;15.50;99.90;;;;;;5092738;28;20208;-63
2021/08/08 04:10:16;;;;;;;3.90;1.20;;;15.50;99.90;;;;;;5092340;28;20788;-63
2021/08/08 04:12:43;;;;;;;8.60;5.93;;;15.50;99.90;;;;;;5092628;28;20200;-63
2021/08/08 04:15:11;;;;;;;5.03;3.43;;;15.50;99.90;;;;;;5092572;28;20621;-63
2021/08/08 04:17:39;;;;;;;4.23;2.43;;;15.60;99.90;;;;;;5092341;28;20224;-63
2021/08/08 04:20:06;;;;;;;5.00;1.13;;;15.70;99.90;;;;;;5092455;28;20235;-63
2021/08/08 04:22:33;;;;;;;2.13;1.20;;;15.80;99.90;;;;;;5092267;28;20211;-63
2021/08/08 04:25:00;;;;;;;2.17;1.00;;;15.80;99.90;;;;;;5092522;28;20212;-63
2021/08/08 04:27:26;;;;;;;4.80;1.90;;;15.80;99.90;;;;;;5093028;28;20200;-63
2021/08/08 04:29:53;;;;;;;4.13;1.13;;;15.80;99.90;;;;;;5092283;28;20228;-63
2021/08/08 04:32:20;;;;;;;2.73;1.33;;;15.80;99.90;;;;;;5092843;28;20261;-64
2021/08/08 04:34:48;;;;;;;3.73;1.20;;;15.90;99.90;;;;;;5092295;28;20211;-63
2021/08/08 04:37:14;;;;;;;5.03;1.63;;;15.90;99.90;;;;;;5092293;28;20262;-64
2021/08/08 04:39:41;;;;;;;3.40;1.13;;;15.90;99.90;;;;;;5092397;28;20396;-63
2021/08/08 04:42:08;;;;;;;5.63;2.07;;;15.90;99.90;;;;;;5092196;28;20211;-63
2021/08/08 04:44:34;;;;;;;3.63;1.10;;;15.80;99.90;;;;;;5091979;28;20200;-63
2021/08/08 04:47:01;;;;;;;3.47;2.23;;;15.80;99.90;;;;;;5092039;28;20680;-63
2021/08/08 04:49:28;;;;;;;2.60;1.90;;;15.90;99.90;;;;;;5091631;28;20228;-63
2021/08/08 04:51:56;;;;;;;6.23;3.70;;;15.90;99.90;;;;;;5091835;28;20208;-63
2021/08/08 04:54:22;;;;;;;3.17;1.23;;;15.90;99.90;;;;;;5090973;28;20208;-63
2021/08/08 04:56:49;;;;;;;4.30;1.40;;;15.80;99.90;;;;;;5091646;28;20701;-63
2021/08/08 04:59:16;;;;;;;3.00;1.60;;;15.90;99.90;;;;;;5091567;28;20224;-63
2021/08/08 05:01:42;;;;;;;6.00;2.10;;;15.90;99.90;;;;;;5092067;28;20231;-63
2021/08/08 05:04:09;;;;;;;5.90;1.70;;;15.90;99.90;;;;;;5091691;28;20207;-64
2021/08/08 05:06:36;;;;;;;1.93;1.20;;;15.90;99.90;;;;;;5091678;28;20200;-64
2021/08/08 05:09:04;;;;;;;3.03;1.90;;;15.90;99.90;;;;;;5091329;28;20573;-64
2021/08/08 05:11:32;;;;;;;3.90;1.00;;;16.10;99.90;;;;;;5091392;28;20596;-64
2021/08/08 05:13:58;;;;;;;4.53;2.10;;;16.20;99.90;;;;;;5091356;28;20235;-64
2021/08/08 05:16:25;;;;;;;5.60;1.50;;;16.30;99.90;;;;;;5091411;28;20231;-64
2021/08/08 05:18:52;;;;;;;1.77;1.27;;;16.40;99.90;;;;;;5091238;28;20227;-64
2021/08/08 05:21:19;;;;;;;2.87;1.50;;;16.50;99.90;;;;;;5091848;28;20215;-64
2021/08/08 05:23:45;;;;;;;3.60;1.43;;;16.60;99.90;;;;;;5091668;28;20212;-64
2021/08/08 05:26:13;;;;;;;1.60;0.87;;;16.70;99.90;;;;;;5091693;28;20212;-64
2021/08/08 05:28:42;;;;;;;3.43;2.10;;;16.90;99.90;;;;;;5091211;28;20247;-64
2021/08/08 05:31:09;;;;;;;3.93;1.40;;;17.00;99.90;;;;;;5091210;28;20208;-64
2021/08/08 05:33:36;;;;;;;6.65;1.92;;;17.00;99.90;;;;;;5090964;28;20356;-64
2021/08/08 05:36:03;;;;;;;1.93;1.17;;;17.00;99.90;;;;;;5091403;28;20212;-64
2021/08/08 05:38:29;;;;;;;3.03;1.10;;;17.10;99.90;;;;;;5091794;28;20699;-64
2021/08/08 05:40:56;;;;;;;2.75;0.93;;;17.30;99.90;;;;;;5092677;28;20635;-65
2021/08/08 05:43:24;;;;;;;6.13;3.88;;;18.00;99.90;;;;;;5091493;28;20278;-65
2021/08/08 05:45:51;;;;;;;2.72;1.52;;;19.80;99.90;;;;;;5091690;28;20215;-64
2021/08/08 05:48:17;;;;;;;5.97;1.67;;;22.00;99.90;;;;;;5091380;28;20204;-64
2021/08/08 05:50:44;;;;;;;1.65;1.00;;;24.00;99.90;;;;;;5091870;28;20718;-64
2021/08/08 05:53:11;;;;;;;1.55;0.80;;;25.70;99.90;;;;;;5092091;28;20212;-64
2021/08/08 05:55:41;;;;;;;2.55;1.20;;;27.30;99.90;;;;;;5091035;28;20204;-65
2021/08/08 05:58:08;;;;;;;1.60;1.00;;;28.80;99.90;;;;;;5090882;28;20232;-65
2021/08/08 06:00:36;;;;;;;5.03;1.00;;;30.10;99.40;;;;;;5090752;28;20204;-65
2021/08/08 06:03:07;;;;;;;3.85;1.10;;;30.80;94.90;;;;;;5091152;28;20200;-65
2021/08/08 06:05:33;;;;;;;1.85;0.90;;;31.30;92.50;;;;;;5092149;28;20212;-65
2021/08/08 06:08:00;;;;;;;1.35;0.70;;;31.60;90.10;;;;;;5095228;28;20706;-65
2021/08/08 06:10:27;;;;;;;2.25;0.77;;;32.00;87.20;;;;;;5095053;28;20261;-63
2021/08/08 06:12:53;;;;;;;2.00;0.68;;;32.60;82.60;;;;;;5095161;28;20208;-65
2021/08/08 06:15:20;;;;;;;2.45;1.25;;;33.00;79.20;;;;;;5095167;28;20216;-65
2021/08/08 06:17:49;;;;;;;3.42;0.60;;;33.40;77.40;;;;;;5094741;28;20607;-64
2021/08/08 06:20:16;;;;;;;2.17;0.52;;;33.70;73.40;;;;;;5094896;28;20315;-64
2021/08/08 06:22:42;;;;;;;3.15;0.40;;;34.10;71.50;;;;;;5094824;28;20668;-65
2021/08/08 06:25:10;;;;;;;0.90;0.55;;;34.40;69.00;;;;;;5094514;28;20269;-65
2021/08/08 06:27:37;;;;;;;1.20;0.70;;;34.90;68.00;;;;;;5094518;28;20204;-67
2021/08/08 06:30:04;;;;;;;1.23;0.40;;;35.40;64.50;;;;;;5094694;28;20235;-65
2021/08/08 06:32:31;;;;;;;2.70;0.70;;;35.80;62.90;;;;;;5094769;28;20219;-65
2021/08/08 06:34:59;;;;;;;2.33;0.73;;;36.30;61.40;;;;;;5094714;28;20200;-65
2021/08/08 06:37:26;;;;;;;1.98;0.60;;;36.70;59.40;;;;;;5094554;28;20713;-65
2021/08/08 06:39:52;;;;;;;3.97;0.82;;;36.60;58.20;;;;;;5094194;28;20220;-65
2021/08/08 06:42:19;;;;;;;1.38;0.70;;;36.70;57.00;;;;;;5094606;28;20216;-65
2021/08/08 06:44:46;;;;;;;3.90;1.52;;;36.40;56.80;;;;;;5094578;28;20204;-64
2021/08/08 06:47:13;;;;;;;1.80;0.50;;;36.50;56.50;;;;;;5094590;28;20207;-64
2021/08/08 06:49:39;;;;;;;2.35;1.10;;;36.60;56.10;;;;;;5094646;28;20707;-65
2021/08/08 06:52:07;;;;;;;2.25;0.80;;;37.00;55.60;;;;;;5095401;28;20204;-65
2021/08/08 06:54:34;;;;;;;1.80;0.93;;;37.80;55.50;;;;;;5094077;28;20204;-65
2021/08/08 06:57:01;;;;;;;0.88;0.60;;;38.30;52.60;;;;;;5094273;28;20251;-68
2021/08/08 06:59:30;;;;;;;4.15;0.60;;;38.40;51.90;;;;;;5093765;28;20637;-65
2021/08/08 07:01:57;;;;;;;1.77;0.73;;;38.70;51.10;;;;;;5094106;28;20200;-65
2021/08/08 07:04:24;;;;;;;2.55;0.73;;;39.00;50.60;;;;;;5093953;28;20207;-65
2021/08/08 07:06:51;;;;;;;1.05;0.43;;;39.20;49.50;;;;;;5094255;28;20201;-65
2021/08/08 07:09:19;;;;;;;1.52;0.70;;;39.50;49.20;;;;;;5094208;28;20230;-65
2021/08/08 07:11:46;;;;;;;2.22;1.00;;;39.90;48.30;;;;;;5094046;28;20738;-65
2021/08/08 07:14:13;;;;;;;3.60;0.70;;;40.10;48.30;;;;;;5093986;28;20281;-65
2021/08/08 07:16:39;;;;;;;2.33;1.05;;;39.90;47.90;;;;;;5093506;28;20204;-65
2021/08/08 07:19:06;;;;;;;1.50;0.80;;;39.80;47.50;;;;;;5093621;28;20231;-65
2021/08/08 07:21:33;;;;;;;1.40;0.75;;;39.90;47.10;;;;;;5093838;28;20671;-65
2021/08/08 07:23:59;;;;;;;2.38;0.98;;;39.70;47.00;;;;;;5093619;28;20211;-65
2021/08/08 07:26:28;;;;;;;3.67;0.65;;;39.80;46.70;;;;;;5094164;28;20238;-65
2021/08/08 07:28:54;;;;;;;1.55;0.77;;;39.90;45.90;;;;;;5093622;28;20231;-64
2021/08/08 07:31:21;;;;;;;1.30;0.60;;;39.80;45.60;;;;;;5093850;28;20200;-68
2021/08/08 07:33:48;;;;;;;1.98;0.73;;;39.80;45.90;;;;;;5093339;28;20212;-67
2021/08/08 07:36:14;;;;;;;2.08;0.60;;;40.50;45.10;;;;;;5093492;28;20211;-63
2021/08/08 07:38:41;;;;;;;3.38;1.40;;;41.20;43.50;;;;;;5093471;28;20232;-63
2021/08/08 07:41:11;;;;;;;2.03;0.80;;;41.70;43.00;;;;;;5093757;28;20203;-64
2021/08/08 07:43:39;;;;;;;2.55;0.90;;;41.60;42.60;;;;;;5093304;28;20199;-63
2021/08/08 07:46:06;;;;;;;1.98;0.80;;;41.30;42.80;;;;;;5093559;28;20203;-61
2021/08/08 07:48:33;;;;;;;1.77;0.80;;;41.60;42.70;;;;;;5093187;28;20318;-62
2021/08/08 07:51:00;;;;;;;2.40;0.90;;;41.40;42.60;;;;;;5093178;28;20284;-62
2021/08/08 07:53:26;;;;;;;1.73;0.90;;;41.40;42.20;;;;;;5092974;28;20671;-62
2021/08/08 07:55:55;;;;;;;3.10;1.13;;;41.10;41.80;;;;;;5093270;28;20204;-62
2021/08/08 07:58:22;;;;;;;3.08;2.30;;;40.30;42.80;;;;;;5092742;28;20768;-62
2021/08/08 08:00:51;;;;;;;2.35;0.88;;;40.30;42.80;;;;;;5092964;28;20261;-62
2021/08/08 08:03:18;;;;;;;1.38;0.70;;;40.60;42.90;;;;;;5092675;28;20204;-62
2021/08/08 08:05:44;;;;;;;1.95;0.73;;;40.80;42.20;;;;;;5092892;28;20203;-61
2021/08/08 08:08:11;;;;;;;3.05;0.90;;;39.80;43.70;;;;;;5092766;28;20633;-61
2021/08/08 08:10:38;;;;;;;2.17;0.63;;;38.20;45.50;;;;;;5093061;28;20200;-62
2021/08/08 08:13:05;;;;;;;2.50;1.08;;;36.70;47.00;;;;;;5092643;28;20281;-62
2021/08/08 08:15:32;;;;;;;3.55;1.67;;;35.20;49.00;;;;;;5093062;28;20306;-61
2021/08/08 08:18:00;;;;;;;4.63;1.50;;;33.60;51.60;;;;;;5092363;28;20205;-62
2021/08/08 08:20:27;;;;;;;2.85;1.00;;;32.30;53.50;;;;;;5092501;28;20694;-62
2021/08/08 08:22:54;;;;;;;2.92;1.27;;;31.30;55.20;;;;;;5092560;28;20212;-62
2021/08/08 08:25:22;;;;;;;0.90;0.73;;;31.00;55.70;;;;;;5092585;28;20223;-61
2021/08/08 08:27:49;;;;;;;1.80;0.70;;;30.70;55.70;;;;;;5092096;28;20281;-62
2021/08/08 08:30:16;;;;;;;2.10;0.93;;;31.40;55.60;;;;;;5092036;28;20232;-62
2021/08/08 08:32:43;;;;;;;4.07;1.08;;;32.50;53.60;;;;;;5092218;28;20219;-62
2021/08/08 08:35:12;;;;;;;3.15;1.00;;;32.60;52.70;;;;;;5092383;28;20208;-62
2021/08/08 08:37:39;;;;;;;2.35;0.90;;;32.10;53.90;;;;;;5092577;28;20200;-62
2021/08/08 08:40:07;;;;;;;3.80;1.20;;;31.60;53.80;;;;;;5092614;28;20224;-62
2021/08/08 08:42:35;;;;;;;3.47;1.20;;;30.80;54.70;;;;;;5092070;28;20207;-62
2021/08/08 08:45:03;;;;;;;3.15;1.30;;;30.00;56.90;;;;;;5092511;28;20208;-62
2021/08/08 08:47:31;;;;;;;2.03;0.93;;;29.20;58.20;;;;;;5092180;28;20228;-62
2021/08/08 08:49:59;;;;;;;2.30;1.10;;;28.50;60.50;;;;;;5092261;28;20232;-62
2021/08/08 08:52:28;;;;;;;3.45;1.30;;;28.00;61.90;;;;;;5092142;28;20204;-64
2021/08/08 08:54:56;;;;;;;5.68;1.70;;;27.70;63.10;;;;;;5092045;28;20225;-64
2021/08/08 08:57:23;;;;;;;3.92;1.50;;;27.30;64.30;;;;;;5091989;28;20226;-64
2021/08/08 08:59:51;;;;;;;3.10;1.15;;;27.00;65.10;;;;;;5091718;28;20220;-64
2021/08/08 09:02:17;;;;;;;3.75;1.40;;;26.80;65.70;;;;;;5092174;28;20204;-64
2021/08/08 09:04:44;;;;;;;9.23;1.35;;;26.60;66.00;;;;;;5092102;28;20698;-64
2021/08/08 09:07:11;;;;;;;3.53;1.45;;;26.50;65.80;;;;;;5091844;28;20253;-64
2021/08/08 09:09:39;;;;;;;1.70;1.17;;;26.30;66.30;;;;;;5092028;28;20493;-65
2021/08/08 09:12:07;;;;;;;2.17;1.27;;;26.30;67.00;;;;;;5091842;28;20200;-63
2021/08/08 09:14:34;;;;;;;2.05;1.02;;;26.50;67.20;;;;;;5092421;28;20214;-64
2021/08/08 09:17:02;;;;;;;2.17;0.90;;;26.40;67.70;;;;;;5093302;28;20200;-64
2021/08/08 09:19:31;;;;;;;3.55;0.98;;;26.40;68.30;;;;;;5093430;28;20310;-64
2021/08/08 09:21:58;;;;;;;3.22;1.20;;;26.40;67.60;;;;;;5094338;28;20212;-64
2021/08/08 09:24:28;;;;;;;2.72;0.95;;;26.50;67.90;;;;;;5093301;28;20204;-63
2021/08/08 09:27:06;;;;;;;2.90;0.80;;;26.70;67.40;;;;;;5091186;28;20306;-63
2021/08/08 09:29:33;;;;;;;3.17;1.10;;;27.10;66.70;;;;;;5104845;22;20319;-64
2021/08/08 09:32:00;;;;;;;4.80;1.02;;;27.30;63.90;;;;;;5091615;28;20211;-61
2021/08/08 09:34:28;;;;;;;1.77;1.00;;;27.60;62.40;;;;;;5091501;28;20239;-62
2021/08/08 09:36:57;;;;;;;1.52;0.85;;;27.80;61.30;;;;;;5091529;28;20242;-62
2021/08/08 09:39:32;;;;;;;2.75;1.00;;;28.00;61.20;;;;;;5090802;28;20743;-62
2021/08/08 09:42:15;;;;;;;2.58;0.90;;;28.10;60.00;;;;;;5091460;28;20663;-62
2021/08/08 09:44:53;;;;;;;4.78;1.15;;;28.10;59.60;;;;;;5091179;28;20204;-62
2021/08/08 09:47:21;;;;;;;1.45;0.77;;;28.10;59.80;;;;;;5091271;28;20204;-62
2021/08/08 09:49:59;;;;;;;1.85;0.90;;;28.20;59.90;;;;;;5091004;28;20224;-62
2021/08/08 09:52:26;;;;;;;1.38;0.88;;;28.20;59.10;;;;;;5091484;28;20734;-62
2021/08/08 09:54:53;;;;;;;2.85;1.05;;;28.30;59.20;;;;;;5091132;28;20235;-63
2021/08/08 09:57:20;;;;;;;3.33;1.08;;;28.40;59.30;;;;;;5091625;28;20243;-62
2021/08/08 09:59:47;;;;;;;2.60;0.75;;;28.70;59.50;;;;;;5091181;28;20228;-63
2021/08/08 10:02:19;;;;;;;2.08;1.50;;;29.00;58.50;;;;;;5091264;28;20228;-62
2021/08/08 10:04:45;;;;;;;3.25;1.23;;;29.40;59.50;;;;;;5091499;28;20648;-63
2021/08/08 10:07:14;;;;;;;4.25;1.40;;;29.60;60.80;;;;;;5091192;28;20211;-63
2021/08/08 10:09:40;;;;;;;2.95;1.10;;;29.80;61.40;;;;;;5090909;28;20232;-62
2021/08/08 10:12:26;;;;;;;2.60;1.20;;;29.80;60.00;;;;;;5091303;28;20204;-62
2021/08/08 10:14:56;;;;;;;1.98;1.00;;;29.70;60.50;;;;;;5091406;28;20208;-62
2021/08/08 10:17:26;;;;;;;3.60;1.08;;;29.40;59.90;;;;;;5091297;28;20298;-62
2021/08/08 10:19:55;;;;;;;1.45;1.05;;;29.30;61.20;;;;;;5090708;28;20293;-62
2021/08/08 10:22:24;;;;;;;2.22;0.90;;;29.10;62.20;;;;;;5090965;28;20208;-62
2021/08/08 10:24:51;;;;;;;4.50;1.45;;;28.60;63.10;;;;;;5090756;28;20208;-63
2021/08/08 10:27:21;;;;;;;2.40;1.10;;;27.90;65.50;;;;;;5090830;28;20208;-63
2021/08/08 10:29:49;;;;;;;4.47;1.10;;;27.50;66.30;;;;;;5090478;28;20239;-63
2021/08/08 10:32:18;;;;;;;4.85;1.38;;;26.90;68.40;;;;;;5091781;28;20228;-62
2021/08/08 10:34:45;;;;;;;2.72;1.35;;;26.70;69.10;;;;;;5091433;28;20204;-63
2021/08/08 10:37:12;;;;;;;3.92;1.35;;;26.50;69.60;;;;;;5091143;28;20204;-63
2021/08/08 10:39:41;;;;;;;4.47;1.48;;;26.60;69.10;;;;;;5090441;28;20274;-62
2021/08/08 10:42:08;;;;;;;3.08;1.33;;;26.60;68.00;;;;;;5091022;28;20204;-63
2021/08/08 10:44:46;;;;;;;1.73;0.90;;;26.70;69.40;;;;;;5090630;28;20204;-64
2021/08/08 10:47:23;;;;;;;3.67;1.90;;;26.90;66.20;;;;;;5090938;28;20295;-63
2021/08/08 10:49:51;;;;;;;4.10;1.00;;;27.10;65.10;;;;;;5090391;28;20228;-63
2021/08/08 10:52:18;;;;;;;4.05;1.50;;;27.60;64.90;;;;;;5092678;28;20627;-63
2021/08/08 10:54:47;;;;;;;2.85;0.95;;;27.90;64.20;;;;;;5094496;28;20208;-65
2021/08/08 10:57:15;;;;;;;3.55;1.00;;;28.10;63.20;;;;;;5094701;28;20304;-63
2021/08/08 10:59:44;;;;;;;1.95;1.20;;;28.10;63.20;;;;;;5094321;28;20815;-63
2021/08/08 11:02:11;;;;;;;1.65;0.77;;;28.20;63.10;;;;;;5094450;28;20235;-63
2021/08/08 11:04:38;;;;;;;5.30;1.00;;;28.20;60.90;;;;;;5094083;28;20205;-63
2021/08/08 11:07:07;;;;;;;3.85;1.00;;;28.10;60.00;;;;;;5094513;28;20303;-63
2021/08/08 11:09:35;;;;;;;2.08;1.02;;;27.80;58.00;;;;;;5094233;28;20232;-63
2021/08/08 11:12:02;;;;;;;2.90;0.90;;;27.70;57.80;;;;;;5094229;28;20262;-63
2021/08/08 11:14:29;;;;;;;2.65;1.15;;;27.60;58.10;;;;;;5093940;28;20231;-62
2021/08/08 11:17:00;;;;;;;1.90;0.70;;;27.60;58.70;;;;;;5094032;28;20200;-62
2021/08/08 11:19:32;;;;;;;1.48;0.80;;;27.60;58.50;;;;;;5093763;28;20224;-64
2021/08/08 11:22:08;;;;;;;3.08;0.93;;;27.50;59.00;;;;;;5094223;28;20219;-63
2021/08/08 11:24:35;;;;;;;3.20;1.10;;;27.50;59.00;;;;;;5094049;28;20214;-63
2021/08/08 11:27:01;;;;;;;2.78;2.25;;;27.60;58.90;;;;;;5093836;28;20233;-64
2021/08/08 11:29:29;;;;;;;3.83;1.30;;;27.70;60.30;;;;;;5093571;28;20231;-68
2021/08/08 11:32:00;;;;;;;2.13;1.00;;;27.70;60.10;;;;;;5094084;28;20281;-64
2021/08/08 11:34:27;;;;;;;3.25;1.08;;;27.70;60.20;;;;;;5093582;28;20212;-63
2021/08/08 11:36:56;;;;;;;2.10;1.52;;;27.90;59.70;;;;;;5093787;28;20215;-62
2021/08/08 11:39:32;;;;;;;4.00;2.28;;;28.20;59.40;;;;;;5093566;28;20220;-63
2021/08/08 11:42:01;;;;;;;5.25;1.58;;;28.40;59.30;;;;;;5093579;28;20667;-62
2021/08/08 11:44:36;;;;;;;1.88;0.95;;;28.40;61.30;;;;;;5093470;28;20627;-63
2021/08/08 11:47:03;;;;;;;2.40;1.17;;;28.30;61.50;;;;;;5093875;28;20239;-63
2021/08/08 11:49:31;;;;;;;3.45;1.35;;;27.80;62.60;;;;;;5093605;28;20225;-62
2021/08/08 11:51:58;;;;;;;3.33;1.10;;;27.40;63.80;;;;;;5093347;28;20668;-62
2021/08/08 11:54:27;;;;;;;4.88;1.40;;;27.20;64.10;;;;;;5094184;28;20204;-63
2021/08/08 11:56:55;;;;;;;3.17;1.20;;;27.10;64.30;;;;;;5093304;28;20215;-63
2021/08/08 11:59:26;;;;;;;1.77;0.85;;;27.10;64.30;;;;;;5093149;28;20712;-61
2021/08/08 12:02:00;;;;;;;2.22;1.10;;;26.80;66.20;;;;;;5093329;28;20295;-64
2021/08/08 12:04:28;;;;;;;6.60;2.00;;;26.60;65.80;;;;;;5092263;28;20204;-64
2021/08/08 12:06:56;;;;;;;2.65;1.40;;;26.40;65.90;;;;;;5092972;28;20254;-63
2021/08/08 12:09:23;;;;;;;1.83;1.13;;;26.00;67.10;;;;;;5092706;28;20228;-63
2021/08/08 12:11:52;;;;;;;3.28;1.10;;;25.60;67.80;;;;;;5093227;28;20216;-63
2021/08/08 12:14:30;;;;;;;3.22;1.25;;;25.10;68.70;;;;;;5093226;28;20303;-62
2021/08/08 12:17:02;;;;;;;1.70;1.10;;;25.00;68.60;;;;;;5092884;28;20208;-63
2021/08/08 12:19:30;;;;;;;3.92;0.80;;;24.80;68.40;;;;;;5092606;28;20719;-62
2021/08/08 12:22:02;;;;;;;1.90;0.90;;;24.60;68.70;;;;;;5092714;28;20296;-63
2021/08/08 12:24:37;;;;;;;2.22;1.13;;;24.50;69.40;;;;;;5092587;28;20725;-62
2021/08/08 12:27:06;;;;;;;2.30;0.98;;;24.30;70.80;;;;;;5092797;28;20339;-62
2021/08/08 12:29:35;;;;;;;2.00;1.02;;;24.40;71.90;;;;;;5092540;28;20254;-63
2021/08/08 12:32:12;;;;;;;3.60;1.23;;;24.20;72.20;;;;;;5092633;28;20208;-63
2021/08/08 12:34:38;;;;;;;2.63;1.90;;;24.10;72.00;;;;;;5092272;28;20777;-63
2021/08/08 12:37:08;;;;;;;3.00;1.17;;;24.00;72.50;;;;;;5092306;28;20211;-62
2021/08/08 12:39:36;;;;;;;4.13;1.02;;;23.80;70.90;;;;;;5092214;28;20227;-62
2021/08/08 12:42:15;;;;;;;2.60;0.82;;;23.60;71.10;;;;;;5092123;28;20204;-62
2021/08/08 12:44:42;;;;;;;2.33;0.98;;;23.40;72.30;;;;;;5091939;28;20300;-62
2021/08/08 12:47:10;;;;;;;2.72;1.17;;;23.50;72.40;;;;;;5092042;28;20243;-62
2021/08/08 12:49:38;;;;;;;1.42;0.90;;;24.00;71.90;;;;;;5091959;28;20224;-63
2021/08/08 12:52:05;;;;;;;2.28;1.20;;;24.30;71.60;;;;;;5092242;28;20204;-62